sensor_id;sensor_type;location;lat;lon;timestamp;P1;durP1;ratioP1;P2;durP2;ratioP2
61617;SDS011;47518;51.776;9.370;2023-04-24T00:00:53;2.80;;;2.60;;
61617;SDS011;47518;51.776;9.370;2023-04-24T00:03:22;2.65;;;2.45;;
61617;SDS011;47518;51.776;9.370;2023-04-24T00:05:48;3.05;;;2.80;;
61617;SDS011;47518;51.776;9.370;2023-04-24T00:08:14;3.00;;;2.70;;
61617;SDS011;47518;51.776;9.370;2023-04-24T00:10:40;3.33;;;2.70;;
61617;SDS011;47518;51.776;9.370;2023-04-24T00:13:09;2.97;;;2.72;;
61617;SDS011;47518;51.776;9.370;2023-04-24T00:15:34;3.15;;;2.90;;
61617;SDS011;47518;51.776;9.370;2023-04-24T00:17:59;4.57;;;2.88;;
61617;SDS011;47518;51.776;9.370;2023-04-24T00:20:31;2.55;;;2.45;;
61617;SDS011;47518;51.776;9.370;2023-04-24T00:22:58;2.90;;;2.70;;
61617;SDS011;47518;51.776;9.370;2023-04-24T00:25:23;2.95;;;2.70;;
61617;SDS011;47518;51.776;9.370;2023-04-24T00:27:49;2.83;;;2.63;;
61617;SDS011;47518;51.776;9.370;2023-04-24T00:30:24;3.70;;;2.50;;
61617;SDS011;47518;51.776;9.370;2023-04-24T00:32:49;2.85;;;2.65;;
61617;SDS011;47518;51.776;9.370;2023-04-24T00:35:17;2.70;;;2.60;;
61617;SDS011;47518;51.776;9.370;2023-04-24T00:37:50;2.50;;;2.40;;
61617;SDS011;47518;51.776;9.370;2023-04-24T00:40:16;3.88;;;2.90;;
61617;SDS011;47518;51.776;9.370;2023-04-24T00:42:41;2.90;;;2.70;;
61617;SDS011;47518;51.776;9.370;2023-04-24T00:45:10;2.90;;;2.70;;
61617;SDS011;47518;51.776;9.370;2023-04-24T00:47:37;3.15;;;2.70;;
61617;SDS011;47518;51.776;9.370;2023-04-24T00:50:04;2.75;;;2.60;;
61617;SDS011;47518;51.776;9.370;2023-04-24T00:52:30;3.17;;;2.53;;
61617;SDS011;47518;51.776;9.370;2023-04-24T00:54:57;3.03;;;2.80;;
61617;SDS011;47518;51.776;9.370;2023-04-24T00:57:26;3.30;;;3.00;;
61617;SDS011;47518;51.776;9.370;2023-04-24T00:59:52;2.70;;;2.60;;
61617;SDS011;47518;51.776;9.370;2023-04-24T01:02:21;2.75;;;2.60;;
61617;SDS011;47518;51.776;9.370;2023-04-24T01:04:49;3.08;;;2.88;;
61617;SDS011;47518;51.776;9.370;2023-04-24T01:07:19;3.03;;;2.78;;
61617;SDS011;47518;51.776;9.370;2023-04-24T01:09:46;2.80;;;2.70;;
61617;SDS011;47518;51.776;9.370;2023-04-24T01:12:14;3.83;;;2.95;;
61617;SDS011;47518;51.776;9.370;2023-04-24T01:14:40;3.10;;;2.90;;
61617;SDS011;47518;51.776;9.370;2023-04-24T01:17:08;2.70;;;2.60;;
61617;SDS011;47518;51.776;9.370;2023-04-24T01:19:34;2.60;;;2.50;;
61617;SDS011;47518;51.776;9.370;2023-04-24T01:21:59;2.55;;;2.35;;
61617;SDS011;47518;51.776;9.370;2023-04-24T01:24:27;2.75;;;2.60;;
61617;SDS011;47518;51.776;9.370;2023-04-24T01:26:53;2.85;;;2.60;;
61617;SDS011;47518;51.776;9.370;2023-04-24T01:29:19;2.80;;;2.70;;
61617;SDS011;47518;51.776;9.370;2023-04-24T01:31:44;3.00;;;2.75;;
61617;SDS011;47518;51.776;9.370;2023-04-24T01:34:10;2.30;;;2.20;;
61617;SDS011;47518;51.776;9.370;2023-04-24T01:36:38;2.55;;;2.40;;
61617;SDS011;47518;51.776;9.370;2023-04-24T01:39:03;2.53;;;2.30;;
61617;SDS011;47518;51.776;9.370;2023-04-24T01:41:29;2.20;;;2.10;;
61617;SDS011;47518;51.776;9.370;2023-04-24T01:44:01;2.50;;;2.40;;
61617;SDS011;47518;51.776;9.370;2023-04-24T01:46:27;2.72;;;2.53;;
61617;SDS011;47518;51.776;9.370;2023-04-24T01:48:53;2.20;;;2.10;;
61617;SDS011;47518;51.776;9.370;2023-04-24T01:51:18;2.30;;;2.20;;
61617;SDS011;47518;51.776;9.370;2023-04-24T01:53:44;2.30;;;2.20;;
61617;SDS011;47518;51.776;9.370;2023-04-24T01:56:09;2.17;;;2.08;;
61617;SDS011;47518;51.776;9.370;2023-04-24T01:58:35;2.20;;;2.10;;
61617;SDS011;47518;51.776;9.370;2023-04-24T02:01:03;2.40;;;2.30;;
61617;SDS011;47518;51.776;9.370;2023-04-24T02:03:28;3.40;;;2.20;;
61617;SDS011;47518;51.776;9.370;2023-04-24T02:05:54;2.47;;;2.28;;
61617;SDS011;47518;51.776;9.370;2023-04-24T02:08:19;2.30;;;2.20;;
61617;SDS011;47518;51.776;9.370;2023-04-24T02:10:45;2.30;;;2.20;;
61617;SDS011;47518;51.776;9.370;2023-04-24T02:13:10;2.53;;;2.33;;
61617;SDS011;47518;51.776;9.370;2023-04-24T02:15:38;2.30;;;2.20;;
61617;SDS011;47518;51.776;9.370;2023-04-24T02:18:03;2.40;;;2.30;;
61617;SDS011;47518;51.776;9.370;2023-04-24T02:20:28;2.20;;;2.10;;
61617;SDS011;47518;51.776;9.370;2023-04-24T02:22:54;2.08;;;2.03;;
61617;SDS011;47518;51.776;9.370;2023-04-24T02:25:19;2.30;;;2.20;;
61617;SDS011;47518;51.776;9.370;2023-04-24T02:27:45;2.20;;;2.10;;
61617;SDS011;47518;51.776;9.370;2023-04-24T02:30:10;2.20;;;2.10;;
61617;SDS011;47518;51.776;9.370;2023-04-24T02:32:36;2.38;;;2.28;;
61617;SDS011;47518;51.776;9.370;2023-04-24T02:35:01;2.50;;;2.22;;
61617;SDS011;47518;51.776;9.370;2023-04-24T02:37:26;2.40;;;2.30;;
61617;SDS011;47518;51.776;9.370;2023-04-24T02:39:52;2.33;;;2.20;;
61617;SDS011;47518;51.776;9.370;2023-04-24T02:42:17;2.75;;;2.28;;
61617;SDS011;47518;51.776;9.370;2023-04-24T02:44:42;2.30;;;2.20;;
61617;SDS011;47518;51.776;9.370;2023-04-24T02:47:08;2.30;;;2.20;;
61617;SDS011;47518;51.776;9.370;2023-04-24T02:49:34;2.30;;;2.20;;
61617;SDS011;47518;51.776;9.370;2023-04-24T02:51:59;2.30;;;2.20;;
61617;SDS011;47518;51.776;9.370;2023-04-24T02:54:25;2.40;;;2.30;;
61617;SDS011;47518;51.776;9.370;2023-04-24T02:56:50;2.53;;;2.30;;
61617;SDS011;47518;51.776;9.370;2023-04-24T02:59:16;3.20;;;2.10;;
61617;SDS011;47518;51.776;9.370;2023-04-24T03:01:41;2.40;;;2.20;;
61617;SDS011;47518;51.776;9.370;2023-04-24T03:04:12;2.45;;;2.22;;
61617;SDS011;47518;51.776;9.370;2023-04-24T03:06:38;2.40;;;2.30;;
61617;SDS011;47518;51.776;9.370;2023-04-24T03:09:03;2.58;;;2.40;;
61617;SDS011;47518;51.776;9.370;2023-04-24T03:11:29;2.50;;;2.30;;
61617;SDS011;47518;51.776;9.370;2023-04-24T03:13:54;2.58;;;2.38;;
61617;SDS011;47518;51.776;9.370;2023-04-24T03:16:20;2.47;;;2.30;;
61617;SDS011;47518;51.776;9.370;2023-04-24T03:18:45;2.40;;;2.30;;
61617;SDS011;47518;51.776;9.370;2023-04-24T03:21:11;2.50;;;2.30;;
61617;SDS011;47518;51.776;9.370;2023-04-24T03:23:37;2.50;;;2.30;;
61617;SDS011;47518;51.776;9.370;2023-04-24T03:26:02;2.83;;;2.42;;
61617;SDS011;47518;51.776;9.370;2023-04-24T03:28:27;2.47;;;2.28;;
61617;SDS011;47518;51.776;9.370;2023-04-24T03:30:53;2.60;;;2.40;;
61617;SDS011;47518;51.776;9.370;2023-04-24T03:33:18;2.70;;;2.50;;
61617;SDS011;47518;51.776;9.370;2023-04-24T03:36:02;2.58;;;2.47;;
61617;SDS011;47518;51.776;9.370;2023-04-24T03:38:30;2.47;;;2.38;;
61617;SDS011;47518;51.776;9.370;2023-04-24T03:40:55;2.40;;;2.30;;
61617;SDS011;47518;51.776;9.370;2023-04-24T03:43:22;2.60;;;2.40;;
61617;SDS011;47518;51.776;9.370;2023-04-24T03:45:47;2.40;;;2.30;;
61617;SDS011;47518;51.776;9.370;2023-04-24T03:48:12;2.75;;;2.58;;
61617;SDS011;47518;51.776;9.370;2023-04-24T03:50:38;2.50;;;2.40;;
61617;SDS011;47518;51.776;9.370;2023-04-24T03:53:03;2.38;;;2.28;;
61617;SDS011;47518;51.776;9.370;2023-04-24T03:55:28;2.50;;;2.40;;
61617;SDS011;47518;51.776;9.370;2023-04-24T03:57:54;2.67;;;2.47;;
61617;SDS011;47518;51.776;9.370;2023-04-24T04:00:19;2.40;;;2.30;;
61617;SDS011;47518;51.776;9.370;2023-04-24T04:02:48;2.58;;;2.40;;
61617;SDS011;47518;51.776;9.370;2023-04-24T04:07:50;2.30;;;2.20;;
61617;SDS011;47518;51.776;9.370;2023-04-24T04:10:22;2.40;;;2.30;;
61617;SDS011;47518;51.776;9.370;2023-04-24T04:12:47;2.80;;;2.60;;
61617;SDS011;47518;51.776;9.370;2023-04-24T04:15:13;2.97;;;2.80;;
61617;SDS011;47518;51.776;9.370;2023-04-24T04:17:38;2.90;;;2.70;;
61617;SDS011;47518;51.776;9.370;2023-04-24T04:20:04;2.83;;;2.63;;
61617;SDS011;47518;51.776;9.370;2023-04-24T04:22:35;4.63;;;2.60;;
61617;SDS011;47518;51.776;9.370;2023-04-24T04:25:06;3.45;;;2.45;;
61617;SDS011;47518;51.776;9.370;2023-04-24T04:27:32;2.97;;;2.40;;
61617;SDS011;47518;51.776;9.370;2023-04-24T04:29:58;2.50;;;2.40;;
61617;SDS011;47518;51.776;9.370;2023-04-24T04:32:28;2.55;;;2.35;;
61617;SDS011;47518;51.776;9.370;2023-04-24T04:34:53;2.60;;;2.40;;
61617;SDS011;47518;51.776;9.370;2023-04-24T04:37:18;2.40;;;2.20;;
61617;SDS011;47518;51.776;9.370;2023-04-24T04:39:44;2.40;;;2.30;;
61617;SDS011;47518;51.776;9.370;2023-04-24T04:42:09;2.40;;;2.30;;
61617;SDS011;47518;51.776;9.370;2023-04-24T04:44:35;2.10;;;2.00;;
61617;SDS011;47518;51.776;9.370;2023-04-24T04:47:01;2.00;;;1.90;;
61617;SDS011;47518;51.776;9.370;2023-04-24T04:49:30;4.00;;;2.28;;
61617;SDS011;47518;51.776;9.370;2023-04-24T04:51:56;3.00;;;2.00;;
61617;SDS011;47518;51.776;9.370;2023-04-24T04:54:22;2.75;;;2.00;;
61617;SDS011;47518;51.776;9.370;2023-04-24T04:56:49;2.00;;;1.90;;
61617;SDS011;47518;51.776;9.370;2023-04-24T04:59:15;2.10;;;2.00;;
61617;SDS011;47518;51.776;9.370;2023-04-24T05:01:40;2.10;;;2.00;;
61617;SDS011;47518;51.776;9.370;2023-04-24T05:04:06;2.22;;;2.10;;
61617;SDS011;47518;51.776;9.370;2023-04-24T05:06:34;2.88;;;2.22;;
61617;SDS011;47518;51.776;9.370;2023-04-24T05:08:59;2.20;;;2.10;;
61617;SDS011;47518;51.776;9.370;2023-04-24T05:11:26;2.20;;;2.10;;
61617;SDS011;47518;51.776;9.370;2023-04-24T05:13:51;2.28;;;2.10;;
61617;SDS011;47518;51.776;9.370;2023-04-24T05:16:19;2.10;;;2.00;;
61617;SDS011;47518;51.776;9.370;2023-04-24T05:18:45;2.22;;;2.10;;
61617;SDS011;47518;51.776;9.370;2023-04-24T05:21:10;2.15;;;2.05;;
61617;SDS011;47518;51.776;9.370;2023-04-24T05:23:38;3.03;;;2.72;;
61617;SDS011;47518;51.776;9.370;2023-04-24T05:26:05;2.30;;;2.20;;
61617;SDS011;47518;51.776;9.370;2023-04-24T05:28:31;2.40;;;2.20;;
61617;SDS011;47518;51.776;9.370;2023-04-24T05:30:56;2.10;;;2.00;;
61617;SDS011;47518;51.776;9.370;2023-04-24T05:33:26;2.88;;;2.10;;
61617;SDS011;47518;51.776;9.370;2023-04-24T05:35:54;2.28;;;2.17;;
61617;SDS011;47518;51.776;9.370;2023-04-24T05:38:45;2.42;;;2.25;;
61617;SDS011;47518;51.776;9.370;2023-04-24T05:41:20;2.95;;;2.30;;
61617;SDS011;47518;51.776;9.370;2023-04-24T05:43:51;3.50;;;2.40;;
61617;SDS011;47518;51.776;9.370;2023-04-24T05:46:39;2.78;;;2.58;;
61617;SDS011;47518;51.776;9.370;2023-04-24T05:52:10;2.95;;;2.70;;
61617;SDS011;47518;51.776;9.370;2023-04-24T05:57:47;3.05;;;2.85;;
61617;SDS011;47518;51.776;9.370;2023-04-24T06:00:32;3.33;;;3.00;;
61617;SDS011;47518;51.776;9.370;2023-04-24T06:02:59;3.38;;;2.80;;
61617;SDS011;47518;51.776;9.370;2023-04-24T06:05:25;3.83;;;3.00;;
61617;SDS011;47518;51.776;9.370;2023-04-24T06:08:43;2.90;;;2.70;;
61617;SDS011;47518;51.776;9.370;2023-04-24T06:24:18;4.10;;;3.80;;
61617;SDS011;47518;51.776;9.370;2023-04-24T06:26:54;4.32;;;3.92;;
61617;SDS011;47518;51.776;9.370;2023-04-24T06:29:36;4.05;;;3.72;;
61617;SDS011;47518;51.776;9.370;2023-04-24T06:32:04;4.18;;;3.88;;
61617;SDS011;47518;51.776;9.370;2023-04-24T06:34:42;4.25;;;3.85;;
61617;SDS011;47518;51.776;9.370;2023-04-24T06:37:17;4.35;;;3.95;;
61617;SDS011;47518;51.776;9.370;2023-04-24T06:40:03;4.97;;;4.05;;
61617;SDS011;47518;51.776;9.370;2023-04-24T06:43:12;6.65;;;4.18;;
61617;SDS011;47518;51.776;9.370;2023-04-24T06:45:51;5.25;;;4.60;;
61617;SDS011;47518;51.776;9.370;2023-04-24T06:48:20;4.80;;;4.20;;
61617;SDS011;47518;51.776;9.370;2023-04-24T06:51:04;9.88;;;4.13;;
61617;SDS011;47518;51.776;9.370;2023-04-24T06:53:30;4.25;;;3.95;;
61617;SDS011;47518;51.776;9.370;2023-04-24T06:55:58;4.47;;;4.18;;
61617;SDS011;47518;51.776;9.370;2023-04-24T06:59:16;4.45;;;4.05;;
61617;SDS011;47518;51.776;9.370;2023-04-24T07:02:02;5.70;;;3.90;;
61617;SDS011;47518;51.776;9.370;2023-04-24T07:04:29;4.30;;;3.83;;
61617;SDS011;47518;51.776;9.370;2023-04-24T07:07:40;4.63;;;4.32;;
61617;SDS011;47518;51.776;9.370;2023-04-24T07:10:24;5.40;;;4.90;;
61617;SDS011;47518;51.776;9.370;2023-04-24T07:12:55;5.03;;;4.63;;
61617;SDS011;47518;51.776;9.370;2023-04-24T07:15:46;5.28;;;4.78;;
61617;SDS011;47518;51.776;9.370;2023-04-24T07:18:14;6.00;;;4.80;;
61617;SDS011;47518;51.776;9.370;2023-04-24T07:20:39;5.40;;;5.00;;
61617;SDS011;47518;51.776;9.370;2023-04-24T07:23:08;6.20;;;4.82;;
61617;SDS011;47518;51.776;9.370;2023-04-24T07:25:47;5.63;;;5.13;;
61617;SDS011;47518;51.776;9.370;2023-04-24T07:28:15;5.70;;;5.20;;
61617;SDS011;47518;51.776;9.370;2023-04-24T07:30:51;7.95;;;5.60;;
61617;SDS011;47518;51.776;9.370;2023-04-24T07:33:38;6.60;;;5.75;;
61617;SDS011;47518;51.776;9.370;2023-04-24T07:36:36;6.63;;;5.95;;
61617;SDS011;47518;51.776;9.370;2023-04-24T07:39:05;8.48;;;6.13;;
61617;SDS011;47518;51.776;9.370;2023-04-24T07:41:31;8.52;;;6.38;;
61617;SDS011;47518;51.776;9.370;2023-04-24T07:43:56;8.10;;;6.60;;
61617;SDS011;47518;51.776;9.370;2023-04-24T07:46:22;6.80;;;6.15;;
61617;SDS011;47518;51.776;9.370;2023-04-24T07:48:54;7.00;;;6.30;;
61617;SDS011;47518;51.776;9.370;2023-04-24T07:51:20;6.65;;;6.05;;
61617;SDS011;47518;51.776;9.370;2023-04-24T07:53:45;8.32;;;6.18;;
61617;SDS011;47518;51.776;9.370;2023-04-24T07:56:11;8.43;;;6.50;;
61617;SDS011;47518;51.776;9.370;2023-04-24T07:58:39;8.13;;;6.47;;
61617;SDS011;47518;51.776;9.370;2023-04-24T08:01:07;6.20;;;5.70;;
61617;SDS011;47518;51.776;9.370;2023-04-24T08:03:32;7.18;;;6.47;;
61617;SDS011;47518;51.776;9.370;2023-04-24T08:05:58;6.78;;;6.18;;
61617;SDS011;47518;51.776;9.370;2023-04-24T08:08:24;8.10;;;7.30;;
61617;SDS011;47518;51.776;9.370;2023-04-24T08:10:50;9.15;;;7.47;;
61617;SDS011;47518;51.776;9.370;2023-04-24T08:13:15;7.47;;;5.80;;
61617;SDS011;47518;51.776;9.370;2023-04-24T08:15:41;6.00;;;5.40;;
61617;SDS011;47518;51.776;9.370;2023-04-24T08:18:06;5.95;;;5.40;;
61617;SDS011;47518;51.776;9.370;2023-04-24T08:20:32;6.22;;;5.13;;
61617;SDS011;47518;51.776;9.370;2023-04-24T08:23:14;5.57;;;5.07;;
61617;SDS011;47518;51.776;9.370;2023-04-24T08:25:46;5.68;;;5.05;;
61617;SDS011;47518;51.776;9.370;2023-04-24T08:28:16;5.47;;;4.88;;
61617;SDS011;47518;51.776;9.370;2023-04-24T08:33:31;5.50;;;5.00;;
61617;SDS011;47518;51.776;9.370;2023-04-24T08:36:02;5.60;;;5.10;;
61617;SDS011;47518;51.776;9.370;2023-04-24T08:38:44;5.45;;;4.95;;
61617;SDS011;47518;51.776;9.370;2023-04-24T08:41:27;5.43;;;4.80;;
61617;SDS011;47518;51.776;9.370;2023-04-24T08:43:53;6.70;;;4.50;;
61617;SDS011;47518;51.776;9.370;2023-04-24T08:46:20;4.43;;;4.03;;
61617;SDS011;47518;51.776;9.370;2023-04-24T08:48:46;4.70;;;4.30;;
61617;SDS011;47518;51.776;9.370;2023-04-24T08:51:15;6.82;;;4.40;;
61617;SDS011;47518;51.776;9.370;2023-04-24T08:53:42;4.95;;;4.45;;
61617;SDS011;47518;51.776;9.370;2023-04-24T08:56:08;4.38;;;3.97;;
61617;SDS011;47518;51.776;9.370;2023-04-24T08:58:36;4.00;;;3.70;;
61617;SDS011;47518;51.776;9.370;2023-04-24T09:01:02;7.50;;;3.75;;
61617;SDS011;47518;51.776;9.370;2023-04-24T09:03:28;4.03;;;3.63;;
61617;SDS011;47518;51.776;9.370;2023-04-24T09:06:02;4.18;;;3.88;;
61617;SDS011;47518;51.776;9.370;2023-04-24T09:08:28;8.52;;;3.97;;
61617;SDS011;47518;51.776;9.370;2023-04-24T09:10:55;3.80;;;3.50;;
61617;SDS011;47518;51.776;9.370;2023-04-24T09:13:23;3.80;;;3.50;;
61617;SDS011;47518;51.776;9.370;2023-04-24T09:15:51;4.22;;;3.70;;
61617;SDS011;47518;51.776;9.370;2023-04-24T09:18:16;3.75;;;3.40;;
61617;SDS011;47518;51.776;9.370;2023-04-24T09:21:06;4.90;;;3.95;;
61617;SDS011;47518;51.776;9.370;2023-04-24T09:23:33;3.80;;;3.50;;
61617;SDS011;47518;51.776;9.370;2023-04-24T09:26:00;3.72;;;3.40;;
61617;SDS011;47518;51.776;9.370;2023-04-24T09:28:31;4.93;;;4.43;;
61617;SDS011;47518;51.776;9.370;2023-04-24T09:31:02;5.53;;;3.60;;
61617;SDS011;47518;51.776;9.370;2023-04-24T09:33:59;4.00;;;3.70;;
61617;SDS011;47518;51.776;9.370;2023-04-24T09:36:27;4.45;;;3.80;;
61617;SDS011;47518;51.776;9.370;2023-04-24T09:38:57;5.90;;;3.47;;
61617;SDS011;47518;51.776;9.370;2023-04-24T09:41:23;3.42;;;3.05;;
61617;SDS011;47518;51.776;9.370;2023-04-24T09:43:49;3.60;;;3.30;;
61617;SDS011;47518;51.776;9.370;2023-04-24T09:46:14;3.30;;;3.10;;
61617;SDS011;47518;51.776;9.370;2023-04-24T09:48:46;3.25;;;3.05;;
61617;SDS011;47518;51.776;9.370;2023-04-24T09:51:13;4.47;;;3.15;;
61617;SDS011;47518;51.776;9.370;2023-04-24T09:53:57;3.20;;;3.00;;
61617;SDS011;47518;51.776;9.370;2023-04-24T09:56:24;3.10;;;2.90;;
61617;SDS011;47518;51.776;9.370;2023-04-24T09:58:51;3.15;;;2.95;;
61617;SDS011;47518;51.776;9.370;2023-04-24T10:01:16;3.40;;;3.20;;
61617;SDS011;47518;51.776;9.370;2023-04-24T10:03:57;4.72;;;3.03;;
61617;SDS011;47518;51.776;9.370;2023-04-24T10:06:24;3.38;;;3.00;;
61617;SDS011;47518;51.776;9.370;2023-04-24T10:08:56;2.95;;;2.75;;
61617;SDS011;47518;51.776;9.370;2023-04-24T10:11:26;3.50;;;3.20;;
61617;SDS011;47518;51.776;9.370;2023-04-24T10:13:52;3.35;;;3.15;;
61617;SDS011;47518;51.776;9.370;2023-04-24T10:16:18;3.35;;;3.15;;
61617;SDS011;47518;51.776;9.370;2023-04-24T10:18:47;3.65;;;3.40;;
61617;SDS011;47518;51.776;9.370;2023-04-24T10:21:14;4.03;;;3.67;;
61617;SDS011;47518;51.776;9.370;2023-04-24T10:23:40;4.10;;;3.70;;
61617;SDS011;47518;51.776;9.370;2023-04-24T10:26:08;6.38;;;3.88;;
61617;SDS011;47518;51.776;9.370;2023-04-24T10:28:36;5.25;;;3.55;;
61617;SDS011;47518;51.776;9.370;2023-04-24T10:31:02;5.00;;;3.92;;
61617;SDS011;47518;51.776;9.370;2023-04-24T10:33:27;3.70;;;3.40;;
61617;SDS011;47518;51.776;9.370;2023-04-24T10:35:54;4.20;;;3.63;;
61617;SDS011;47518;51.776;9.370;2023-04-24T10:38:25;4.43;;;3.80;;
61617;SDS011;47518;51.776;9.370;2023-04-24T10:43:45;3.33;;;3.00;;
61617;SDS011;47518;51.776;9.370;2023-04-24T10:46:11;3.55;;;3.33;;
61617;SDS011;47518;51.776;9.370;2023-04-24T10:48:44;3.60;;;3.15;;
61617;SDS011;47518;51.776;9.370;2023-04-24T10:51:22;4.80;;;3.30;;
61617;SDS011;47518;51.776;9.370;2023-04-24T10:53:52;3.33;;;3.05;;
61617;SDS011;47518;51.776;9.370;2023-04-24T10:56:21;2.83;;;2.67;;
61617;SDS011;47518;51.776;9.370;2023-04-24T10:58:50;3.38;;;3.15;;
61617;SDS011;47518;51.776;9.370;2023-04-24T11:01:26;35.65;;;4.30;;
61617;SDS011;47518;51.776;9.370;2023-04-24T11:03:54;4.38;;;3.50;;
61617;SDS011;47518;51.776;9.370;2023-04-24T11:06:30;3.20;;;2.90;;
61617;SDS011;47518;51.776;9.370;2023-04-24T11:09:01;2.63;;;2.53;;
61617;SDS011;47518;51.776;9.370;2023-04-24T11:11:31;3.50;;;3.30;;
61617;SDS011;47518;51.776;9.370;2023-04-24T11:14:01;3.63;;;3.42;;
61617;SDS011;47518;51.776;9.370;2023-04-24T11:16:30;3.47;;;3.30;;
61617;SDS011;47518;51.776;9.370;2023-04-24T11:19:08;3.17;;;2.97;;
61617;SDS011;47518;51.776;9.370;2023-04-24T11:21:43;2.80;;;2.70;;
61617;SDS011;47518;51.776;9.370;2023-04-24T11:27:17;2.20;;;2.00;;
61617;SDS011;47518;51.776;9.370;2023-04-24T11:32:36;1.80;;;1.80;;
61617;SDS011;47518;51.776;9.370;2023-04-24T11:35:06;1.80;;;1.80;;
61617;SDS011;47518;51.776;9.370;2023-04-24T11:37:34;2.95;;;2.75;;
61617;SDS011;47518;51.776;9.370;2023-04-24T11:40:14;1.70;;;1.70;;
61617;SDS011;47518;51.776;9.370;2023-04-24T11:42:43;2.22;;;1.80;;
61617;SDS011;47518;51.776;9.370;2023-04-24T11:45:16;1.70;;;1.70;;
61617;SDS011;47518;51.776;9.370;2023-04-24T11:47:44;1.60;;;1.60;;
61617;SDS011;47518;51.776;9.370;2023-04-24T11:50:12;1.85;;;1.70;;
61617;SDS011;47518;51.776;9.370;2023-04-24T11:52:40;1.70;;;1.60;;
61617;SDS011;47518;51.776;9.370;2023-04-24T11:55:07;1.80;;;1.80;;
61617;SDS011;47518;51.776;9.370;2023-04-24T11:57:48;1.88;;;1.80;;
61617;SDS011;47518;51.776;9.370;2023-04-24T12:00:16;2.08;;;1.98;;
61617;SDS011;47518;51.776;9.370;2023-04-24T12:02:43;1.95;;;1.85;;
61617;SDS011;47518;51.776;9.370;2023-04-24T12:05:09;2.10;;;2.00;;
61617;SDS011;47518;51.776;9.370;2023-04-24T12:07:44;3.28;;;1.92;;
61617;SDS011;47518;51.776;9.370;2023-04-24T12:10:10;2.90;;;2.03;;
61617;SDS011;47518;51.776;9.370;2023-04-24T12:12:35;2.28;;;2.17;;
61617;SDS011;47518;51.776;9.370;2023-04-24T12:15:05;2.20;;;2.10;;
61617;SDS011;47518;51.776;9.370;2023-04-24T12:17:33;2.47;;;2.22;;
61617;SDS011;47518;51.776;9.370;2023-04-24T12:20:03;1.90;;;1.90;;
61617;SDS011;47518;51.776;9.370;2023-04-24T12:25:20;2.00;;;2.00;;
61617;SDS011;47518;51.776;9.370;2023-04-24T12:27:53;2.45;;;1.90;;
61617;SDS011;47518;51.776;9.370;2023-04-24T12:30:20;2.15;;;2.05;;
61617;SDS011;47518;51.776;9.370;2023-04-24T12:32:48;1.90;;;1.90;;
61617;SDS011;47518;51.776;9.370;2023-04-24T12:35:19;2.00;;;1.90;;
61617;SDS011;47518;51.776;9.370;2023-04-24T12:37:48;1.95;;;1.88;;
61617;SDS011;47518;51.776;9.370;2023-04-24T12:40:13;1.80;;;1.80;;
61617;SDS011;47518;51.776;9.370;2023-04-24T12:42:43;1.75;;;1.75;;
61617;SDS011;47518;51.776;9.370;2023-04-24T12:45:10;1.70;;;1.70;;
61617;SDS011;47518;51.776;9.370;2023-04-24T12:47:37;1.70;;;1.70;;
61617;SDS011;47518;51.776;9.370;2023-04-24T12:50:04;5.13;;;3.40;;
61617;SDS011;47518;51.776;9.370;2023-04-24T12:52:31;2.10;;;2.00;;
61617;SDS011;47518;51.776;9.370;2023-04-24T12:54:57;2.03;;;1.90;;
61617;SDS011;47518;51.776;9.370;2023-04-24T12:57:24;1.88;;;1.88;;
61617;SDS011;47518;51.776;9.370;2023-04-24T12:59:53;2.20;;;2.10;;
61617;SDS011;47518;51.776;9.370;2023-04-24T13:02:22;2.28;;;2.17;;
61617;SDS011;47518;51.776;9.370;2023-04-24T13:04:50;1.90;;;1.90;;
61617;SDS011;47518;51.776;9.370;2023-04-24T13:07:17;2.00;;;1.90;;
61617;SDS011;47518;51.776;9.370;2023-04-24T13:09:43;2.20;;;2.10;;
61617;SDS011;47518;51.776;9.370;2023-04-24T13:12:09;2.30;;;2.10;;
61617;SDS011;47518;51.776;9.370;2023-04-24T13:14:36;2.33;;;2.22;;
61617;SDS011;47518;51.776;9.370;2023-04-24T13:17:02;2.40;;;2.30;;
61617;SDS011;47518;51.776;9.370;2023-04-24T13:19:28;2.28;;;2.17;;
61617;SDS011;47518;51.776;9.370;2023-04-24T13:21:54;2.40;;;2.30;;
61617;SDS011;47518;51.776;9.370;2023-04-24T13:24:21;2.35;;;2.22;;
61617;SDS011;47518;51.776;9.370;2023-04-24T13:26:51;2.47;;;2.38;;
61617;SDS011;47518;51.776;9.370;2023-04-24T13:29:17;2.10;;;2.00;;
61617;SDS011;47518;51.776;9.370;2023-04-24T13:31:42;2.10;;;2.00;;
61617;SDS011;47518;51.776;9.370;2023-04-24T13:34:07;2.10;;;2.00;;
61617;SDS011;47518;51.776;9.370;2023-04-24T13:36:33;5.32;;;4.82;;
61617;SDS011;47518;51.776;9.370;2023-04-24T13:39:00;2.58;;;2.47;;
61617;SDS011;47518;51.776;9.370;2023-04-24T13:41:25;2.20;;;2.10;;
61617;SDS011;47518;51.776;9.370;2023-04-24T13:43:51;2.60;;;2.40;;
61617;SDS011;47518;51.776;9.370;2023-04-24T13:46:16;2.40;;;2.30;;
61617;SDS011;47518;51.776;9.370;2023-04-24T13:48:41;2.40;;;2.30;;
61617;SDS011;47518;51.776;9.370;2023-04-24T13:51:09;2.30;;;2.20;;
61617;SDS011;47518;51.776;9.370;2023-04-24T13:53:35;2.20;;;2.10;;
61617;SDS011;47518;51.776;9.370;2023-04-24T13:56:03;2.28;;;2.17;;
61617;SDS011;47518;51.776;9.370;2023-04-24T13:58:28;2.20;;;2.10;;
61617;SDS011;47518;51.776;9.370;2023-04-24T14:00:54;4.00;;;3.60;;
61617;SDS011;47518;51.776;9.370;2023-04-24T14:03:20;3.03;;;2.83;;
61617;SDS011;47518;51.776;9.370;2023-04-24T14:05:45;2.80;;;2.60;;
61617;SDS011;47518;51.776;9.370;2023-04-24T14:08:12;3.17;;;2.47;;
61617;SDS011;47518;51.776;9.370;2023-04-24T14:10:38;3.58;;;3.28;;
61617;SDS011;47518;51.776;9.370;2023-04-24T14:13:03;4.10;;;3.50;;
61617;SDS011;47518;51.776;9.370;2023-04-24T14:15:28;4.18;;;3.78;;
61617;SDS011;47518;51.776;9.370;2023-04-24T14:17:54;4.05;;;3.70;;
61617;SDS011;47518;51.776;9.370;2023-04-24T14:20:19;7.07;;;4.10;;
61617;SDS011;47518;51.776;9.370;2023-04-24T14:22:44;5.70;;;4.10;;
61617;SDS011;47518;51.776;9.370;2023-04-24T14:25:10;4.68;;;4.28;;
61617;SDS011;47518;51.776;9.370;2023-04-24T14:27:36;7.03;;;4.50;;
61617;SDS011;47518;51.776;9.370;2023-04-24T14:30:01;6.50;;;4.45;;
61617;SDS011;47518;51.776;9.370;2023-04-24T14:32:26;10.10;;;4.97;;
61617;SDS011;47518;51.776;9.370;2023-04-24T14:34:52;6.20;;;4.68;;
61617;SDS011;47518;51.776;9.370;2023-04-24T14:37:17;7.05;;;4.57;;
61617;SDS011;47518;51.776;9.370;2023-04-24T14:39:43;6.53;;;5.00;;
61617;SDS011;47518;51.776;9.370;2023-04-24T14:42:10;8.13;;;4.80;;
61617;SDS011;47518;51.776;9.370;2023-04-24T14:44:35;7.50;;;5.10;;
61617;SDS011;47518;51.776;9.370;2023-04-24T14:47:00;6.78;;;4.50;;
61617;SDS011;47518;51.776;9.370;2023-04-24T14:49:25;8.10;;;5.43;;
61617;SDS011;47518;51.776;9.370;2023-04-24T14:51:51;7.22;;;5.35;;
61617;SDS011;47518;51.776;9.370;2023-04-24T14:54:16;10.07;;;5.47;;
61617;SDS011;47518;51.776;9.370;2023-04-24T14:56:42;8.30;;;5.50;;
61617;SDS011;47518;51.776;9.370;2023-04-24T14:59:09;7.57;;;5.63;;
61617;SDS011;47518;51.776;9.370;2023-04-24T15:01:34;8.55;;;5.65;;
61617;SDS011;47518;51.776;9.370;2023-04-24T15:04:00;8.05;;;5.60;;
61617;SDS011;47518;51.776;9.370;2023-04-24T15:06:25;8.48;;;6.78;;
61617;SDS011;47518;51.776;9.370;2023-04-24T15:08:50;9.13;;;6.28;;
61617;SDS011;47518;51.776;9.370;2023-04-24T15:11:16;8.65;;;6.60;;
61617;SDS011;47518;51.776;9.370;2023-04-24T15:13:42;14.25;;;6.90;;
61617;SDS011;47518;51.776;9.370;2023-04-24T15:16:07;8.02;;;7.22;;
61617;SDS011;47518;51.776;9.370;2023-04-24T15:18:32;11.52;;;8.52;;
61617;SDS011;47518;51.776;9.370;2023-04-24T15:20:58;9.43;;;8.40;;
61617;SDS011;47518;51.776;9.370;2023-04-24T15:23:23;8.90;;;7.00;;
61617;SDS011;47518;51.776;9.370;2023-04-24T15:25:49;9.88;;;7.25;;
61617;SDS011;47518;51.776;9.370;2023-04-24T15:28:15;9.93;;;7.63;;
61617;SDS011;47518;51.776;9.370;2023-04-24T15:30:41;9.00;;;7.40;;
61617;SDS011;47518;51.776;9.370;2023-04-24T15:33:06;10.30;;;7.15;;